sensor_id;sensor_type;location;lat;lon;timestamp;P1;durP1;ratioP1;P2;durP2;ratioP2
17153;SDS011;8692;52.164;7.558;2022-09-20T00:02:15;3.97;;;1.37;;
17153;SDS011;8692;52.164;7.558;2022-09-20T00:04:44;6.70;;;1.27;;
17153;SDS011;8692;52.164;7.558;2022-09-20T00:07:14;7.17;;;2.73;;
17153;SDS011;8692;52.164;7.558;2022-09-20T00:09:42;8.17;;;1.60;;
17153;SDS011;8692;52.164;7.558;2022-09-20T00:12:10;6.73;;;1.50;;
17153;SDS011;8692;52.164;7.558;2022-09-20T00:14:38;3.73;;;1.47;;
17153;SDS011;8692;52.164;7.558;2022-09-20T00:17:07;5.50;;;1.67;;
17153;SDS011;8692;52.164;7.558;2022-09-20T00:19:35;4.97;;;1.70;;
17153;SDS011;8692;52.164;7.558;2022-09-20T00:22:05;4.17;;;1.40;;
17153;SDS011;8692;52.164;7.558;2022-09-20T00:24:35;5.80;;;2.03;;
17153;SDS011;8692;52.164;7.558;2022-09-20T00:27:03;5.33;;;1.50;;
17153;SDS011;8692;52.164;7.558;2022-09-20T00:29:31;6.07;;;1.37;;
17153;SDS011;8692;52.164;7.558;2022-09-20T00:32:00;4.40;;;1.50;;
17153;SDS011;8692;52.164;7.558;2022-09-20T00:34:28;1.53;;;0.90;;
17153;SDS011;8692;52.164;7.558;2022-09-20T00:37:15;3.83;;;1.10;;
17153;SDS011;8692;52.164;7.558;2022-09-20T00:39:45;5.53;;;1.37;;
17153;SDS011;8692;52.164;7.558;2022-09-20T00:42:14;5.10;;;1.17;;
17153;SDS011;8692;52.164;7.558;2022-09-20T00:44:43;3.40;;;0.97;;
17153;SDS011;8692;52.164;7.558;2022-09-20T00:47:18;2.53;;;1.07;;
17153;SDS011;8692;52.164;7.558;2022-09-20T00:49:57;5.37;;;1.23;;
17153;SDS011;8692;52.164;7.558;2022-09-20T00:52:30;4.93;;;1.13;;
17153;SDS011;8692;52.164;7.558;2022-09-20T00:55:02;3.67;;;1.37;;
17153;SDS011;8692;52.164;7.558;2022-09-20T00:57:36;4.83;;;1.40;;
17153;SDS011;8692;52.164;7.558;2022-09-20T01:00:07;4.10;;;0.87;;
17153;SDS011;8692;52.164;7.558;2022-09-20T01:02:38;3.53;;;1.27;;
17153;SDS011;8692;52.164;7.558;2022-09-20T01:05:09;4.73;;;1.23;;
17153;SDS011;8692;52.164;7.558;2022-09-20T01:07:43;3.90;;;1.70;;
17153;SDS011;8692;52.164;7.558;2022-09-20T01:10:12;2.87;;;1.13;;
17153;SDS011;8692;52.164;7.558;2022-09-20T01:12:41;5.97;;;1.23;;
17153;SDS011;8692;52.164;7.558;2022-09-20T01:15:11;3.17;;;1.07;;
17153;SDS011;8692;52.164;7.558;2022-09-20T01:17:43;3.83;;;1.43;;
17153;SDS011;8692;52.164;7.558;2022-09-20T01:20:18;4.33;;;1.43;;
17153;SDS011;8692;52.164;7.558;2022-09-20T01:22:58;2.77;;;0.77;;
17153;SDS011;8692;52.164;7.558;2022-09-20T01:28:57;3.47;;;1.27;;
17153;SDS011;8692;52.164;7.558;2022-09-20T01:31:34;2.30;;;0.97;;
17153;SDS011;8692;52.164;7.558;2022-09-20T01:34:09;3.27;;;1.10;;
17153;SDS011;8692;52.164;7.558;2022-09-20T01:36:42;8.37;;;1.50;;
17153;SDS011;8692;52.164;7.558;2022-09-20T01:39:16;4.90;;;1.40;;
17153;SDS011;8692;52.164;7.558;2022-09-20T01:41:52;4.93;;;1.40;;
17153;SDS011;8692;52.164;7.558;2022-09-20T01:44:29;4.13;;;1.60;;
17153;SDS011;8692;52.164;7.558;2022-09-20T01:47:04;3.37;;;1.70;;
17153;SDS011;8692;52.164;7.558;2022-09-20T01:49:41;7.67;;;1.73;;
17153;SDS011;8692;52.164;7.558;2022-09-20T01:52:22;4.07;;;1.93;;
17153;SDS011;8692;52.164;7.558;2022-09-20T01:55:21;4.43;;;1.20;;
17153;SDS011;8692;52.164;7.558;2022-09-20T02:01:50;3.93;;;1.20;;
17153;SDS011;8692;52.164;7.558;2022-09-20T02:07:38;5.37;;;1.30;;
17153;SDS011;8692;52.164;7.558;2022-09-20T02:13:27;6.67;;;1.50;;
17153;SDS011;8692;52.164;7.558;2022-09-20T02:19:05;2.60;;;0.90;;
17153;SDS011;8692;52.164;7.558;2022-09-20T02:21:59;5.60;;;1.73;;
17153;SDS011;8692;52.164;7.558;2022-09-20T02:24:48;4.70;;;1.70;;
17153;SDS011;8692;52.164;7.558;2022-09-20T02:27:23;5.17;;;1.50;;
17153;SDS011;8692;52.164;7.558;2022-09-20T02:30:03;6.00;;;1.63;;
17153;SDS011;8692;52.164;7.558;2022-09-20T02:32:57;4.77;;;1.20;;
17153;SDS011;8692;52.164;7.558;2022-09-20T02:35:48;2.47;;;1.10;;
17153;SDS011;8692;52.164;7.558;2022-09-20T02:38:35;4.87;;;1.90;;
17153;SDS011;8692;52.164;7.558;2022-09-20T02:41:23;6.57;;;1.47;;
17153;SDS011;8692;52.164;7.558;2022-09-20T02:47:12;5.33;;;1.80;;
17153;SDS011;8692;52.164;7.558;2022-09-20T02:49:53;2.63;;;1.23;;
17153;SDS011;8692;52.164;7.558;2022-09-20T02:52:36;4.00;;;1.70;;
17153;SDS011;8692;52.164;7.558;2022-09-20T02:55:13;2.87;;;1.00;;
17153;SDS011;8692;52.164;7.558;2022-09-20T02:57:49;6.40;;;1.30;;
17153;SDS011;8692;52.164;7.558;2022-09-20T03:00:23;3.93;;;1.10;;
17153;SDS011;8692;52.164;7.558;2022-09-20T03:02:59;3.87;;;1.10;;
17153;SDS011;8692;52.164;7.558;2022-09-20T03:05:42;2.90;;;1.30;;
17153;SDS011;8692;52.164;7.558;2022-09-20T03:08:26;3.97;;;2.00;;
17153;SDS011;8692;52.164;7.558;2022-09-20T03:11:07;2.80;;;1.10;;
17153;SDS011;8692;52.164;7.558;2022-09-20T03:13:54;3.57;;;1.10;;
17153;SDS011;8692;52.164;7.558;2022-09-20T03:16:50;7.10;;;1.27;;
17153;SDS011;8692;52.164;7.558;2022-09-20T03:19:32;3.37;;;1.00;;
17153;SDS011;8692;52.164;7.558;2022-09-20T03:22:15;2.83;;;0.90;;
17153;SDS011;8692;52.164;7.558;2022-09-20T03:24:58;2.20;;;1.10;;
17153;SDS011;8692;52.164;7.558;2022-09-20T03:27:43;3.73;;;1.17;;
17153;SDS011;8692;52.164;7.558;2022-09-20T03:30:26;4.03;;;1.17;;
17153;SDS011;8692;52.164;7.558;2022-09-20T03:33:08;3.87;;;1.30;;
17153;SDS011;8692;52.164;7.558;2022-09-20T03:35:50;4.10;;;1.60;;
17153;SDS011;8692;52.164;7.558;2022-09-20T03:47:25;2.47;;;1.27;;
17153;SDS011;8692;52.164;7.558;2022-09-20T03:50:22;3.63;;;1.10;;
17153;SDS011;8692;52.164;7.558;2022-09-20T03:53:17;2.43;;;1.23;;
17153;SDS011;8692;52.164;7.558;2022-09-20T03:56:07;3.57;;;1.30;;
17153;SDS011;8692;52.164;7.558;2022-09-20T03:58:55;2.27;;;1.10;;
17153;SDS011;8692;52.164;7.558;2022-09-20T04:01:37;4.17;;;1.30;;
17153;SDS011;8692;52.164;7.558;2022-09-20T04:04:31;3.83;;;1.37;;
17153;SDS011;8692;52.164;7.558;2022-09-20T04:07:11;2.53;;;1.13;;
17153;SDS011;8692;52.164;7.558;2022-09-20T04:09:54;4.70;;;1.33;;
17153;SDS011;8692;52.164;7.558;2022-09-20T04:12:31;2.97;;;1.00;;
17153;SDS011;8692;52.164;7.558;2022-09-20T04:15:17;6.20;;;1.07;;
17153;SDS011;8692;52.164;7.558;2022-09-20T04:17:54;4.93;;;1.40;;
17153;SDS011;8692;52.164;7.558;2022-09-20T04:20:29;1.77;;;1.00;;
17153;SDS011;8692;52.164;7.558;2022-09-20T04:23:03;3.80;;;1.30;;
17153;SDS011;8692;52.164;7.558;2022-09-20T04:25:40;2.67;;;1.10;;
17153;SDS011;8692;52.164;7.558;2022-09-20T04:28:13;5.53;;;1.17;;
17153;SDS011;8692;52.164;7.558;2022-09-20T04:30:49;3.10;;;1.60;;
17153;SDS011;8692;52.164;7.558;2022-09-20T04:33:27;3.13;;;1.30;;
17153;SDS011;8692;52.164;7.558;2022-09-20T04:36:04;7.07;;;1.53;;
17153;SDS011;8692;52.164;7.558;2022-09-20T04:38:56;6.17;;;1.10;;
17153;SDS011;8692;52.164;7.558;2022-09-20T04:41:49;4.17;;;1.17;;
17153;SDS011;8692;52.164;7.558;2022-09-20T04:44:47;1.93;;;1.10;;
17153;SDS011;8692;52.164;7.558;2022-09-20T04:47:57;5.10;;;1.30;;
17153;SDS011;8692;52.164;7.558;2022-09-20T04:54:03;2.80;;;1.43;;
17153;SDS011;8692;52.164;7.558;2022-09-20T04:56:50;3.83;;;1.30;;
17153;SDS011;8692;52.164;7.558;2022-09-20T04:59:39;4.70;;;1.43;;
17153;SDS011;8692;52.164;7.558;2022-09-20T05:02:27;2.20;;;1.10;;
17153;SDS011;8692;52.164;7.558;2022-09-20T05:05:31;3.00;;;1.47;;
17153;SDS011;8692;52.164;7.558;2022-09-20T05:08:27;4.57;;;1.20;;
17153;SDS011;8692;52.164;7.558;2022-09-20T05:11:42;2.97;;;1.13;;
17153;SDS011;8692;52.164;7.558;2022-09-20T05:17:33;2.17;;;1.40;;
17153;SDS011;8692;52.164;7.558;2022-09-20T05:20:08;4.10;;;1.93;;
17153;SDS011;8692;52.164;7.558;2022-09-20T05:25:57;2.63;;;1.70;;
17153;SDS011;8692;52.164;7.558;2022-09-20T05:28:39;3.93;;;1.70;;
17153;SDS011;8692;52.164;7.558;2022-09-20T05:31:19;3.30;;;1.53;;
17153;SDS011;8692;52.164;7.558;2022-09-20T05:33:54;3.80;;;1.60;;
17153;SDS011;8692;52.164;7.558;2022-09-20T05:36:28;2.77;;;1.20;;
17153;SDS011;8692;52.164;7.558;2022-09-20T05:39:07;2.93;;;1.67;;
17153;SDS011;8692;52.164;7.558;2022-09-20T05:41:51;5.13;;;1.47;;
17153;SDS011;8692;52.164;7.558;2022-09-20T05:44:26;3.63;;;1.50;;
17153;SDS011;8692;52.164;7.558;2022-09-20T05:47:00;3.57;;;1.77;;
17153;SDS011;8692;52.164;7.558;2022-09-20T05:49:38;3.73;;;1.53;;
17153;SDS011;8692;52.164;7.558;2022-09-20T05:52:21;4.37;;;1.57;;
17153;SDS011;8692;52.164;7.558;2022-09-20T05:58:00;2.83;;;1.60;;
17153;SDS011;8692;52.164;7.558;2022-09-20T06:00:43;5.37;;;1.80;;
17153;SDS011;8692;52.164;7.558;2022-09-20T06:03:17;2.73;;;2.03;;
17153;SDS011;8692;52.164;7.558;2022-09-20T06:05:54;4.63;;;1.70;;
17153;SDS011;8692;52.164;7.558;2022-09-20T06:11:35;4.73;;;1.50;;
17153;SDS011;8692;52.164;7.558;2022-09-20T06:14:20;5.83;;;1.80;;
17153;SDS011;8692;52.164;7.558;2022-09-20T06:16:56;3.60;;;1.60;;
17153;SDS011;8692;52.164;7.558;2022-09-20T06:19:35;3.80;;;1.80;;
17153;SDS011;8692;52.164;7.558;2022-09-20T06:22:10;2.87;;;1.80;;
17153;SDS011;8692;52.164;7.558;2022-09-20T06:24:45;2.37;;;1.40;;
17153;SDS011;8692;52.164;7.558;2022-09-20T06:27:19;3.20;;;1.70;;
17153;SDS011;8692;52.164;7.558;2022-09-20T06:29:54;3.43;;;1.97;;
17153;SDS011;8692;52.164;7.558;2022-09-20T06:32:26;3.27;;;1.73;;
17153;SDS011;8692;52.164;7.558;2022-09-20T06:34:54;4.40;;;2.30;;
17153;SDS011;8692;52.164;7.558;2022-09-20T06:37:30;3.57;;;1.70;;
17153;SDS011;8692;52.164;7.558;2022-09-20T06:40:28;3.20;;;1.43;;
17153;SDS011;8692;52.164;7.558;2022-09-20T06:43:19;3.33;;;1.70;;
17153;SDS011;8692;52.164;7.558;2022-09-20T06:45:49;3.93;;;1.80;;
17153;SDS011;8692;52.164;7.558;2022-09-20T06:48:18;4.47;;;1.80;;
17153;SDS011;8692;52.164;7.558;2022-09-20T06:50:46;2.47;;;1.43;;
17153;SDS011;8692;52.164;7.558;2022-09-20T06:53:15;2.93;;;1.50;;
17153;SDS011;8692;52.164;7.558;2022-09-20T06:55:45;1.87;;;1.63;;
17153;SDS011;8692;52.164;7.558;2022-09-20T06:58:17;2.03;;;1.47;;
17153;SDS011;8692;52.164;7.558;2022-09-20T07:00:46;4.83;;;1.70;;
17153;SDS011;8692;52.164;7.558;2022-09-20T07:03:14;4.10;;;1.47;;
17153;SDS011;8692;52.164;7.558;2022-09-20T07:05:44;2.77;;;1.70;;
17153;SDS011;8692;52.164;7.558;2022-09-20T07:08:15;3.80;;;1.80;;
17153;SDS011;8692;52.164;7.558;2022-09-20T07:10:46;3.43;;;1.90;;
17153;SDS011;8692;52.164;7.558;2022-09-20T07:13:16;5.63;;;2.30;;
17153;SDS011;8692;52.164;7.558;2022-09-20T07:15:44;4.43;;;1.77;;
17153;SDS011;8692;52.164;7.558;2022-09-20T07:18:14;6.10;;;2.00;;
17153;SDS011;8692;52.164;7.558;2022-09-20T07:20:42;5.07;;;2.17;;
17153;SDS011;8692;52.164;7.558;2022-09-20T07:23:10;4.33;;;1.70;;
17153;SDS011;8692;52.164;7.558;2022-09-20T07:25:42;4.53;;;1.67;;
17153;SDS011;8692;52.164;7.558;2022-09-20T07:28:10;6.97;;;1.90;;
17153;SDS011;8692;52.164;7.558;2022-09-20T07:30:38;6.57;;;2.30;;
17153;SDS011;8692;52.164;7.558;2022-09-20T07:33:08;3.90;;;1.90;;
17153;SDS011;8692;52.164;7.558;2022-09-20T07:35:39;7.73;;;1.97;;
17153;SDS011;8692;52.164;7.558;2022-09-20T07:38:07;4.07;;;1.60;;
17153;SDS011;8692;52.164;7.558;2022-09-20T07:40:35;9.83;;;2.37;;
17153;SDS011;8692;52.164;7.558;2022-09-20T07:43:07;5.57;;;1.50;;
17153;SDS011;8692;52.164;7.558;2022-09-20T07:45:35;4.30;;;1.57;;
17153;SDS011;8692;52.164;7.558;2022-09-20T07:48:05;8.17;;;1.90;;
17153;SDS011;8692;52.164;7.558;2022-09-20T07:50:35;7.10;;;1.90;;
17153;SDS011;8692;52.164;7.558;2022-09-20T07:53:04;3.33;;;1.10;;
17153;SDS011;8692;52.164;7.558;2022-09-20T07:55:32;3.97;;;1.13;;
17153;SDS011;8692;52.164;7.558;2022-09-20T07:58:00;8.13;;;1.67;;
17153;SDS011;8692;52.164;7.558;2022-09-20T08:00:31;5.20;;;1.30;;
17153;SDS011;8692;52.164;7.558;2022-09-20T08:03:01;4.93;;;1.63;;
17153;SDS011;8692;52.164;7.558;2022-09-20T08:05:31;8.37;;;2.03;;
17153;SDS011;8692;52.164;7.558;2022-09-20T08:08:02;7.17;;;1.40;;
17153;SDS011;8692;52.164;7.558;2022-09-20T08:10:32;4.43;;;1.33;;
17153;SDS011;8692;52.164;7.558;2022-09-20T08:13:03;3.70;;;1.13;;
17153;SDS011;8692;52.164;7.558;2022-09-20T08:15:51;3.20;;;0.90;;
17153;SDS011;8692;52.164;7.558;2022-09-20T08:18:29;4.23;;;1.10;;
17153;SDS011;8692;52.164;7.558;2022-09-20T08:21:01;5.27;;;1.40;;
17153;SDS011;8692;52.164;7.558;2022-09-20T08:23:34;5.03;;;1.20;;
17153;SDS011;8692;52.164;7.558;2022-09-20T08:26:03;5.93;;;1.37;;
17153;SDS011;8692;52.164;7.558;2022-09-20T08:28:35;4.67;;;1.40;;
17153;SDS011;8692;52.164;7.558;2022-09-20T08:31:06;6.93;;;1.60;;
17153;SDS011;8692;52.164;7.558;2022-09-20T08:33:36;3.10;;;1.10;;
17153;SDS011;8692;52.164;7.558;2022-09-20T08:36:04;4.03;;;1.20;;
17153;SDS011;8692;52.164;7.558;2022-09-20T08:38:36;4.50;;;1.40;;
17153;SDS011;8692;52.164;7.558;2022-09-20T08:41:25;3.07;;;1.33;;
17153;SDS011;8692;52.164;7.558;2022-09-20T08:43:57;7.57;;;1.30;;
17153;SDS011;8692;52.164;7.558;2022-09-20T08:46:29;6.20;;;1.67;;
17153;SDS011;8692;52.164;7.558;2022-09-20T08:49:02;6.40;;;1.40;;
17153;SDS011;8692;52.164;7.558;2022-09-20T08:51:37;7.47;;;1.57;;
17153;SDS011;8692;52.164;7.558;2022-09-20T08:54:10;4.60;;;1.10;;
17153;SDS011;8692;52.164;7.558;2022-09-20T08:56:41;5.40;;;1.90;;
17153;SDS011;8692;52.164;7.558;2022-09-20T08:59:13;6.47;;;1.17;;
17153;SDS011;8692;52.164;7.558;2022-09-20T09:01:45;5.77;;;1.73;;
17153;SDS011;8692;52.164;7.558;2022-09-20T09:04:14;6.50;;;1.57;;
17153;SDS011;8692;52.164;7.558;2022-09-20T09:06:46;8.37;;;1.10;;
17153;SDS011;8692;52.164;7.558;2022-09-20T09:09:20;5.73;;;1.37;;
17153;SDS011;8692;52.164;7.558;2022-09-20T09:11:50;3.33;;;1.20;;
17153;SDS011;8692;52.164;7.558;2022-09-20T09:14:23;3.63;;;1.00;;
17153;SDS011;8692;52.164;7.558;2022-09-20T09:17:11;7.73;;;1.17;;
17153;SDS011;8692;52.164;7.558;2022-09-20T09:19:44;5.90;;;1.50;;
17153;SDS011;8692;52.164;7.558;2022-09-20T09:22:17;3.63;;;1.07;;
17153;SDS011;8692;52.164;7.558;2022-09-20T09:25:06;4.53;;;1.20;;
17153;SDS011;8692;52.164;7.558;2022-09-20T09:27:53;4.10;;;1.40;;
17153;SDS011;8692;52.164;7.558;2022-09-20T09:30:25;4.63;;;1.43;;
17153;SDS011;8692;52.164;7.558;2022-09-20T09:33:15;2.80;;;1.10;;
17153;SDS011;8692;52.164;7.558;2022-09-20T09:35:52;4.47;;;1.10;;
17153;SDS011;8692;52.164;7.558;2022-09-20T09:38:23;4.07;;;1.27;;
17153;SDS011;8692;52.164;7.558;2022-09-20T09:40:57;4.60;;;1.40;;
17153;SDS011;8692;52.164;7.558;2022-09-20T09:43:28;4.57;;;1.10;;
17153;SDS011;8692;52.164;7.558;2022-09-20T09:46:16;5.20;;;0.90;;
17153;SDS011;8692;52.164;7.558;2022-09-20T09:48:47;3.63;;;0.87;;
17153;SDS011;8692;52.164;7.558;2022-09-20T09:51:34;3.30;;;0.70;;
17153;SDS011;8692;52.164;7.558;2022-09-20T09:54:03;3.13;;;0.63;;
17153;SDS011;8692;52.164;7.558;2022-09-20T09:56:43;5.53;;;1.17;;
17153;SDS011;8692;52.164;7.558;2022-09-20T09:59:26;4.03;;;1.10;;
17153;SDS011;8692;52.164;7.558;2022-09-20T10:02:22;4.90;;;0.93;;
17153;SDS011;8692;52.164;7.558;2022-09-20T10:05:12;4.50;;;1.00;;
17153;SDS011;8692;52.164;7.558;2022-09-20T10:07:48;3.63;;;1.10;;
17153;SDS011;8692;52.164;7.558;2022-09-20T10:10:24;3.40;;;1.03;;
17153;SDS011;8692;52.164;7.558;2022-09-20T10:13:02;5.23;;;0.97;;
17153;SDS011;8692;52.164;7.558;2022-09-20T10:15:42;5.97;;;0.90;;
17153;SDS011;8692;52.164;7.558;2022-09-20T10:18:27;3.50;;;0.83;;
17153;SDS011;8692;52.164;7.558;2022-09-20T10:21:10;4.27;;;1.00;;
17153;SDS011;8692;52.164;7.558;2022-09-20T10:23:51;2.77;;;0.90;;
17153;SDS011;8692;52.164;7.558;2022-09-20T10:26:38;5.60;;;0.87;;
17153;SDS011;8692;52.164;7.558;2022-09-20T10:29:26;1.20;;;0.50;;
17153;SDS011;8692;52.164;7.558;2022-09-20T10:32:06;2.40;;;0.80;;
17153;SDS011;8692;52.164;7.558;2022-09-20T10:37:48;4.50;;;1.03;;
17153;SDS011;8692;52.164;7.558;2022-09-20T10:40:26;4.33;;;0.70;;
17153;SDS011;8692;52.164;7.558;2022-09-20T10:43:16;2.47;;;0.67;;
17153;SDS011;8692;52.164;7.558;2022-09-20T10:45:57;2.73;;;0.73;;
17153;SDS011;8692;52.164;7.558;2022-09-20T10:49:02;4.20;;;0.97;;
17153;SDS011;8692;52.164;7.558;2022-09-20T10:51:40;3.83;;;0.70;;
17153;SDS011;8692;52.164;7.558;2022-09-20T10:54:20;5.47;;;0.87;;
17153;SDS011;8692;52.164;7.558;2022-09-20T10:57:04;1.93;;;0.70;;
17153;SDS011;8692;52.164;7.558;2022-09-20T10:59:46;1.00;;;0.50;;
17153;SDS011;8692;52.164;7.558;2022-09-20T11:02:27;3.30;;;0.77;;
17153;SDS011;8692;52.164;7.558;2022-09-20T11:05:25;1.80;;;0.70;;
17153;SDS011;8692;52.164;7.558;2022-09-20T11:08:12;2.13;;;0.83;;
17153;SDS011;8692;52.164;7.558;2022-09-20T11:10:44;1.00;;;0.70;;
17153;SDS011;8692;52.164;7.558;2022-09-20T11:13:20;2.93;;;0.60;;
17153;SDS011;8692;52.164;7.558;2022-09-20T11:15:57;2.83;;;0.70;;
17153;SDS011;8692;52.164;7.558;2022-09-20T11:18:36;4.20;;;1.13;;
17153;SDS011;8692;52.164;7.558;2022-09-20T11:21:10;3.97;;;1.00;;
17153;SDS011;8692;52.164;7.558;2022-09-20T11:23:46;4.47;;;1.00;;
17153;SDS011;8692;52.164;7.558;2022-09-20T11:26:23;3.43;;;0.90;;
17153;SDS011;8692;52.164;7.558;2022-09-20T11:28:57;2.50;;;0.60;;
17153;SDS011;8692;52.164;7.558;2022-09-20T11:31:30;2.63;;;0.80;;
17153;SDS011;8692;52.164;7.558;2022-09-20T11:34:07;3.17;;;0.70;;
17153;SDS011;8692;52.164;7.558;2022-09-20T11:36:41;2.17;;;0.80;;
17153;SDS011;8692;52.164;7.558;2022-09-20T11:39:18;3.93;;;1.03;;
17153;SDS011;8692;52.164;7.558;2022-09-20T11:41:54;4.27;;;0.77;;
17153;SDS011;8692;52.164;7.558;2022-09-20T11:44:25;1.63;;;0.63;;
17153;SDS011;8692;52.164;7.558;2022-09-20T11:46:54;2.23;;;0.83;;
17153;SDS011;8692;52.164;7.558;2022-09-20T11:49:32;6.50;;;1.10;;
17153;SDS011;8692;52.164;7.558;2022-09-20T11:52:16;5.20;;;1.20;;
17153;SDS011;8692;52.164;7.558;2022-09-20T11:55:07;5.33;;;1.07;;
17153;SDS011;8692;52.164;7.558;2022-09-20T11:57:57;4.07;;;0.77;;
17153;SDS011;8692;52.164;7.558;2022-09-20T12:00:27;3.07;;;0.80;;
17153;SDS011;8692;52.164;7.558;2022-09-20T12:03:00;4.27;;;1.10;;
17153;SDS011;8692;52.164;7.558;2022-09-20T12:05:32;4.77;;;1.03;;
17153;SDS011;8692;52.164;7.558;2022-09-20T12:08:06;3.80;;;0.70;;
17153;SDS011;8692;52.164;7.558;2022-09-20T12:10:54;2.40;;;0.80;;
17153;SDS011;8692;52.164;7.558;2022-09-20T12:13:25;4.03;;;0.90;;
17153;SDS011;8692;52.164;7.558;2022-09-20T12:15:58;3.97;;;0.67;;
17153;SDS011;8692;52.164;7.558;2022-09-20T12:18:37;2.53;;;0.70;;
17153;SDS011;8692;52.164;7.558;2022-09-20T12:21:15;2.00;;;0.50;;
17153;SDS011;8692;52.164;7.558;2022-09-20T12:23:58;2.90;;;0.97;;
17153;SDS011;8692;52.164;7.558;2022-09-20T12:26:48;1.87;;;0.60;;
17153;SDS011;8692;52.164;7.558;2022-09-20T12:32:30;1.40;;;0.60;;
17153;SDS011;8692;52.164;7.558;2022-09-20T12:41:17;3.63;;;0.70;;
17153;SDS011;8692;52.164;7.558;2022-09-20T12:43:55;1.67;;;0.70;;
17153;SDS011;8692;52.164;7.558;2022-09-20T12:46:34;2.27;;;0.60;;
17153;SDS011;8692;52.164;7.558;2022-09-20T12:52:34;3.67;;;0.80;;
17153;SDS011;8692;52.164;7.558;2022-09-20T12:55:33;1.97;;;0.80;;
17153;SDS011;8692;52.164;7.558;2022-09-20T12:58:19;3.67;;;0.77;;
17153;SDS011;8692;52.164;7.558;2022-09-20T13:09:59;2.13;;;0.73;;
17153;SDS011;8692;52.164;7.558;2022-09-20T13:12:36;1.20;;;0.60;;
17153;SDS011;8692;52.164;7.558;2022-09-20T13:15:10;2.40;;;1.00;;
17153;SDS011;8692;52.164;7.558;2022-09-20T13:17:44;2.33;;;0.67;;
17153;SDS011;8692;52.164;7.558;2022-09-20T13:20:18;1.70;;;0.70;;
17153;SDS011;8692;52.164;7.558;2022-09-20T13:22:52;2.97;;;0.80;;
17153;SDS011;8692;52.164;7.558;2022-09-20T13:25:27;2.37;;;0.80;;
17153;SDS011;8692;52.164;7.558;2022-09-20T13:27:59;2.33;;;0.77;;
17153;SDS011;8692;52.164;7.558;2022-09-20T13:30:33;2.87;;;0.50;;
17153;SDS011;8692;52.164;7.558;2022-09-20T13:33:18;2.07;;;0.40;;
17153;SDS011;8692;52.164;7.558;2022-09-20T13:35:49;2.43;;;0.53;;
17153;SDS011;8692;52.164;7.558;2022-09-20T13:38:20;3.27;;;0.70;;
17153;SDS011;8692;52.164;7.558;2022-09-20T13:40:53;1.57;;;0.30;;
17153;SDS011;8692;52.164;7.558;2022-09-20T13:43:35;2.03;;;0.60;;
17153;SDS011;8692;52.164;7.558;2022-09-20T13:46:09;3.08;;;0.88;;
17153;SDS011;8692;52.164;7.558;2022-09-20T13:48:45;3.27;;;1.00;;
17153;SDS011;8692;52.164;7.558;2022-09-20T13:51:15;3.30;;;0.80;;
17153;SDS011;8692;52.164;7.558;2022-09-20T13:53:44;4.03;;;0.90;;
17153;SDS011;8692;52.164;7.558;2022-09-20T13:56:15;3.03;;;0.77;;
17153;SDS011;8692;52.164;7.558;2022-09-20T13:58:48;2.13;;;0.67;;
17153;SDS011;8692;52.164;7.558;2022-09-20T14:01:22;4.10;;;0.93;;
17153;SDS011;8692;52.164;7.558;2022-09-20T14:03:55;2.57;;;1.03;;
17153;SDS011;8692;52.164;7.558;2022-09-20T14:06:27;1.77;;;0.70;;
17153;SDS011;8692;52.164;7.558;2022-09-20T14:08:55;3.03;;;1.10;;
17153;SDS011;8692;52.164;7.558;2022-09-20T14:11:26;4.23;;;1.10;;
17153;SDS011;8692;52.164;7.558;2022-09-20T14:13:58;3.37;;;1.00;;
17153;SDS011;8692;52.164;7.558;2022-09-20T14:16:30;4.37;;;0.80;;
17153;SDS011;8692;52.164;7.558;2022-09-20T14:19:03;3.43;;;0.80;;
17153;SDS011;8692;52.164;7.558;2022-09-20T14:21:34;1.80;;;0.80;;
17153;SDS011;8692;52.164;7.558;2022-09-20T14:24:04;3.43;;;0.80;;
17153;SDS011;8692;52.164;7.558;2022-09-20T14:26:34;2.50;;;0.60;;
17153;SDS011;8692;52.164;7.558;2022-09-20T14:32:04;2.70;;;0.53;;
17153;SDS011;8692;52.164;7.558;2022-09-20T14:34:36;1.87;;;0.60;;
17153;SDS011;8692;52.164;7.558;2022-09-20T14:37:06;1.03;;;0.53;;
17153;SDS011;8692;52.164;7.558;2022-09-20T14:39:44;1.30;;;0.40;;
17153;SDS011;8692;52.164;7.558;2022-09-20T14:42:18;2.47;;;0.93;;
17153;SDS011;8692;52.164;7.558;2022-09-20T14:44:51;1.93;;;0.63;;
17153;SDS011;8692;52.164;7.558;2022-09-20T14:47:24;5.20;;;1.10;;
17153;SDS011;8692;52.164;7.558;2022-09-20T14:49:54;1.27;;;0.83;;
17153;SDS011;8692;52.164;7.558;2022-09-20T14:52:36;4.80;;;1.27;;
17153;SDS011;8692;52.164;7.558;2022-09-20T14:55:19;0.90;;;0.67;;
17153;SDS011;8692;52.164;7.558;2022-09-20T14:57:56;1.97;;;0.70;;
17153;SDS011;8692;52.164;7.558;2022-09-20T15:00:44;3.00;;;0.80;;
17153;SDS011;8692;52.164;7.558;2022-09-20T15:03:13;1.30;;;0.70;;
17153;SDS011;8692;52.164;7.558;2022-09-20T15:05:46;2.80;;;0.97;;
17153;SDS011;8692;52.164;7.558;2022-09-20T15:08:16;1.83;;;0.80;;
17153;SDS011;8692;52.164;7.558;2022-09-20T15:10:45;1.27;;;0.50;;
17153;SDS011;8692;52.164;7.558;2022-09-20T15:13:14;1.40;;;0.73;;
17153;SDS011;8692;52.164;7.558;2022-09-20T15:15:44;1.17;;;0.70;;
17153;SDS011;8692;52.164;7.558;2022-09-20T15:18:18;2.80;;;0.60;;
17153;SDS011;8692;52.164;7.558;2022-09-20T15:20:51;1.60;;;0.73;;
17153;SDS011;8692;52.164;7.558;2022-09-20T15:23:22;1.33;;;0.50;;
17153;SDS011;8692;52.164;7.558;2022-09-20T15:25:52;1.83;;;0.67;;
17153;SDS011;8692;52.164;7.558;2022-09-20T15:28:21;0.90;;;0.50;;
17153;SDS011;8692;52.164;7.558;2022-09-20T15:30:50;2.50;;;0.60;;
17153;SDS011;8692;52.164;7.558;2022-09-20T15:33:19;1.80;;;0.80;;
17153;SDS011;8692;52.164;7.558;2022-09-20T15:35:48;3.90;;;0.80;;
17153;SDS011;8692;52.164;7.558;2022-09-20T15:38:18;1.40;;;0.43;;
17153;SDS011;8692;52.164;7.558;2022-09-20T15:40:48;2.13;;;0.60;;
17153;SDS011;8692;52.164;7.558;2022-09-20T15:43:17;0.77;;;0.53;;
17153;SDS011;8692;52.164;7.558;2022-09-20T15:45:51;1.07;;;0.60;;
17153;SDS011;8692;52.164;7.558;2022-09-20T15:48:21;2.43;;;0.70;;
17153;SDS011;8692;52.164;7.558;2022-09-20T15:50:59;0.60;;;0.60;;
17153;SDS011;8692;52.164;7.558;2022-09-20T15:53:29;1.47;;;0.40;;
17153;SDS011;8692;52.164;7.558;2022-09-20T15:56:02;1.23;;;0.33;;
17153;SDS011;8692;52.164;7.558;2022-09-20T15:58:34;1.33;;;0.77;;
17153;SDS011;8692;52.164;7.558;2022-09-20T16:01:04;0.70;;;0.40;;
17153;SDS011;8692;52.164;7.558;2022-09-20T16:03:34;2.03;;;0.50;;
17153;SDS011;8692;52.164;7.558;2022-09-20T16:06:03;1.10;;;0.60;;
17153;SDS011;8692;52.164;7.558;2022-09-20T16:08:33;2.43;;;0.87;;
17153;SDS011;8692;52.164;7.558;2022-09-20T16:11:03;5.87;;;0.90;;
17153;SDS011;8692;52.164;7.558;2022-09-20T16:13:32;2.00;;;1.10;;
17153;SDS011;8692;52.164;7.558;2022-09-20T16:16:05;1.80;;;0.90;;
17153;SDS011;8692;52.164;7.558;2022-09-20T16:18:35;3.17;;;0.90;;
17153;SDS011;8692;52.164;7.558;2022-09-20T16:21:21;1.23;;;0.77;;
17153;SDS011;8692;52.164;7.558;2022-09-20T16:23:49;1.43;;;0.73;;
17153;SDS011;8692;52.164;7.558;2022-09-20T16:26:19;1.83;;;0.80;;
17153;SDS011;8692;52.164;7.558;2022-09-20T16:28:49;1.90;;;1.00;;
17153;SDS011;8692;52.164;7.558;2022-09-20T16:31:28;1.13;;;0.63;;
17153;SDS011;8692;52.164;7.558;2022-09-20T16:34:03;1.77;;;0.70;;
17153;SDS011;8692;52.164;7.558;2022-09-20T16:36:33;1.53;;;0.63;;
17153;SDS011;8692;52.164;7.558;2022-09-20T16:39:01;1.70;;;0.83;;
17153;SDS011;8692;52.164;7.558;2022-09-20T16:41:29;3.00;;;0.80;;
17153;SDS011;8692;52.164;7.558;2022-09-20T16:44:01;1.70;;;0.90;;
17153;SDS011;8692;52.164;7.558;2022-09-20T16:46:33;1.60;;;0.80;;
17153;SDS011;8692;52.164;7.558;2022-09-20T16:49:03;1.30;;;0.87;;
17153;SDS011;8692;52.164;7.558;2022-09-20T16:51:35;2.93;;;1.40;;
17153;SDS011;8692;52.164;7.558;2022-09-20T16:54:06;2.37;;;1.60;;
17153;SDS011;8692;52.164;7.558;2022-09-20T16:56:39;2.87;;;1.60;;
17153;SDS011;8692;52.164;7.558;2022-09-20T16:59:09;2.20;;;1.63;;
17153;SDS011;8692;52.164;7.558;2022-09-20T17:01:39;1.90;;;1.37;;
17153;SDS011;8692;52.164;7.558;2022-09-20T17:04:08;1.90;;;1.20;;
17153;SDS011;8692;52.164;7.558;2022-09-20T17:06:39;1.27;;;1.10;;
17153;SDS011;8692;52.164;7.558;2022-09-20T17:09:11;3.93;;;1.10;;